sensor_id;sensor_type;location;lat;lon;timestamp;temperature;humidity
4962;DHT22;2496;52.468;13.342;2022-08-07T00:01:57;18.30;81.60
4962;DHT22;2496;52.468;13.342;2022-08-07T00:04:24;18.30;81.60
4962;DHT22;2496;52.468;13.342;2022-08-07T00:06:51;18.30;81.60
4962;DHT22;2496;52.468;13.342;2022-08-07T00:09:18;18.30;81.60
4962;DHT22;2496;52.468;13.342;2022-08-07T00:11:45;18.30;81.70
4962;DHT22;2496;52.468;13.342;2022-08-07T00:14:12;18.20;81.80
4962;DHT22;2496;52.468;13.342;2022-08-07T00:16:40;18.20;81.90
4962;DHT22;2496;52.468;13.342;2022-08-07T00:19:07;18.20;82.20
4962;DHT22;2496;52.468;13.342;2022-08-07T00:21:34;18.10;82.20
4962;DHT22;2496;52.468;13.342;2022-08-07T00:24:01;18.20;82.50
4962;DHT22;2496;52.468;13.342;2022-08-07T00:26:28;18.10;82.50
4962;DHT22;2496;52.468;13.342;2022-08-07T00:28:55;18.10;82.60
4962;DHT22;2496;52.468;13.342;2022-08-07T00:31:22;18.10;82.60
4962;DHT22;2496;52.468;13.342;2022-08-07T00:33:51;18.10;82.70
4962;DHT22;2496;52.468;13.342;2022-08-07T00:36:18;18.10;82.80
4962;DHT22;2496;52.468;13.342;2022-08-07T00:38:45;18.00;82.80
4962;DHT22;2496;52.468;13.342;2022-08-07T00:41:12;18.10;83.00
4962;DHT22;2496;52.468;13.342;2022-08-07T00:43:39;18.00;82.90
4962;DHT22;2496;52.468;13.342;2022-08-07T00:46:06;18.00;83.20
4962;DHT22;2496;52.468;13.342;2022-08-07T00:48:33;17.90;83.10
4962;DHT22;2496;52.468;13.342;2022-08-07T00:51:01;17.80;83.40
4962;DHT22;2496;52.468;13.342;2022-08-07T00:53:28;17.80;83.40
4962;DHT22;2496;52.468;13.342;2022-08-07T00:55:55;17.80;83.70
4962;DHT22;2496;52.468;13.342;2022-08-07T00:58:23;17.80;83.50
4962;DHT22;2496;52.468;13.342;2022-08-07T01:00:50;17.80;83.60
4962;DHT22;2496;52.468;13.342;2022-08-07T01:03:17;17.80;83.10
4962;DHT22;2496;52.468;13.342;2022-08-07T01:05:45;17.80;83.20
4962;DHT22;2496;52.468;13.342;2022-08-07T01:08:13;17.70;83.40
4962;DHT22;2496;52.468;13.342;2022-08-07T01:10:41;17.70;83.40
4962;DHT22;2496;52.468;13.342;2022-08-07T01:13:08;17.60;83.70
4962;DHT22;2496;52.468;13.342;2022-08-07T01:15:36;17.60;83.90
4962;DHT22;2496;52.468;13.342;2022-08-07T01:18:03;17.60;84.10
4962;DHT22;2496;52.468;13.342;2022-08-07T01:20:33;17.60;84.20
4962;DHT22;2496;52.468;13.342;2022-08-07T01:23:03;17.60;84.40
4962;DHT22;2496;52.468;13.342;2022-08-07T01:25:31;17.50;84.30
4962;DHT22;2496;52.468;13.342;2022-08-07T01:27:58;17.50;84.50
4962;DHT22;2496;52.468;13.342;2022-08-07T01:30:25;17.50;84.60
4962;DHT22;2496;52.468;13.342;2022-08-07T01:32:52;17.60;84.90
4962;DHT22;2496;52.468;13.342;2022-08-07T01:35:20;17.60;84.80
4962;DHT22;2496;52.468;13.342;2022-08-07T01:37:47;17.60;84.80
4962;DHT22;2496;52.468;13.342;2022-08-07T01:40:18;17.60;84.90
4962;DHT22;2496;52.468;13.342;2022-08-07T01:42:46;17.50;85.00
4962;DHT22;2496;52.468;13.342;2022-08-07T01:45:14;17.50;85.10
4962;DHT22;2496;52.468;13.342;2022-08-07T01:47:41;17.50;85.30
4962;DHT22;2496;52.468;13.342;2022-08-07T01:50:08;17.40;85.30
4962;DHT22;2496;52.468;13.342;2022-08-07T01:52:38;17.50;85.60
4962;DHT22;2496;52.468;13.342;2022-08-07T01:55:07;17.40;85.40
4962;DHT22;2496;52.468;13.342;2022-08-07T01:57:38;17.40;85.60
4962;DHT22;2496;52.468;13.342;2022-08-07T02:00:09;17.40;85.80
4962;DHT22;2496;52.468;13.342;2022-08-07T02:02:41;17.40;85.80
4962;DHT22;2496;52.468;13.342;2022-08-07T02:05:12;17.40;85.90
4962;DHT22;2496;52.468;13.342;2022-08-07T02:07:43;17.30;85.80
4962;DHT22;2496;52.468;13.342;2022-08-07T02:10:13;17.30;86.00
4962;DHT22;2496;52.468;13.342;2022-08-07T02:12:44;17.30;86.10
4962;DHT22;2496;52.468;13.342;2022-08-07T02:15:12;17.30;86.10
4962;DHT22;2496;52.468;13.342;2022-08-07T02:17:43;17.30;86.30
4962;DHT22;2496;52.468;13.342;2022-08-07T02:20:13;17.30;86.20
4962;DHT22;2496;52.468;13.342;2022-08-07T02:22:41;17.30;86.40
4962;DHT22;2496;52.468;13.342;2022-08-07T02:25:11;17.20;86.40
4962;DHT22;2496;52.468;13.342;2022-08-07T02:27:41;17.20;87.10
4962;DHT22;2496;52.468;13.342;2022-08-07T02:30:11;17.20;86.60
4962;DHT22;2496;52.468;13.342;2022-08-07T02:32:38;17.20;86.70
4962;DHT22;2496;52.468;13.342;2022-08-07T02:35:06;17.10;86.60
4962;DHT22;2496;52.468;13.342;2022-08-07T02:37:38;17.10;86.50
4962;DHT22;2496;52.468;13.342;2022-08-07T02:40:07;17.00;86.50
4962;DHT22;2496;52.468;13.342;2022-08-07T02:42:34;17.00;86.80
4962;DHT22;2496;52.468;13.342;2022-08-07T02:45:04;17.00;86.90
4962;DHT22;2496;52.468;13.342;2022-08-07T02:47:33;17.00;86.80
4962;DHT22;2496;52.468;13.342;2022-08-07T02:50:00;17.00;87.00
4962;DHT22;2496;52.468;13.342;2022-08-07T02:52:31;17.00;87.10
4962;DHT22;2496;52.468;13.342;2022-08-07T02:55:02;17.00;87.10
4962;DHT22;2496;52.468;13.342;2022-08-07T02:57:30;17.00;87.30
4962;DHT22;2496;52.468;13.342;2022-08-07T02:59:58;17.00;87.30
4962;DHT22;2496;52.468;13.342;2022-08-07T03:02:26;17.00;87.20
4962;DHT22;2496;52.468;13.342;2022-08-07T03:04:55;17.00;87.10
4962;DHT22;2496;52.468;13.342;2022-08-07T03:07:23;17.00;87.20
4962;DHT22;2496;52.468;13.342;2022-08-07T03:09:50;17.00;87.40
4962;DHT22;2496;52.468;13.342;2022-08-07T03:12:18;17.00;87.40
4962;DHT22;2496;52.468;13.342;2022-08-07T03:14:47;16.90;87.30
4962;DHT22;2496;52.468;13.342;2022-08-07T03:17:15;16.90;87.30
4962;DHT22;2496;52.468;13.342;2022-08-07T03:19:43;16.90;87.50
4962;DHT22;2496;52.468;13.342;2022-08-07T03:22:15;16.80;87.30
4962;DHT22;2496;52.468;13.342;2022-08-07T03:24:44;16.80;87.40
4962;DHT22;2496;52.468;13.342;2022-08-07T03:27:12;16.80;87.50
4962;DHT22;2496;52.468;13.342;2022-08-07T03:29:44;16.80;87.50
4962;DHT22;2496;52.468;13.342;2022-08-07T03:32:12;16.80;87.50
4962;DHT22;2496;52.468;13.342;2022-08-07T03:34:42;16.70;87.50
4962;DHT22;2496;52.468;13.342;2022-08-07T03:37:11;16.70;87.70
4962;DHT22;2496;52.468;13.342;2022-08-07T03:39:40;16.70;87.70
4962;DHT22;2496;52.468;13.342;2022-08-07T03:42:08;16.70;87.70
4962;DHT22;2496;52.468;13.342;2022-08-07T03:44:36;16.60;87.60
4962;DHT22;2496;52.468;13.342;2022-08-07T03:47:05;16.60;87.70
4962;DHT22;2496;52.468;13.342;2022-08-07T03:49:33;16.50;87.60
4962;DHT22;2496;52.468;13.342;2022-08-07T03:52:00;16.50;88.00
4962;DHT22;2496;52.468;13.342;2022-08-07T03:54:28;16.50;88.00
4962;DHT22;2496;52.468;13.342;2022-08-07T03:56:56;16.50;88.00
4962;DHT22;2496;52.468;13.342;2022-08-07T03:59:26;16.50;88.00
4962;DHT22;2496;52.468;13.342;2022-08-07T04:01:54;16.50;88.20
4962;DHT22;2496;52.468;13.342;2022-08-07T04:04:22;16.50;88.40
4962;DHT22;2496;52.468;13.342;2022-08-07T04:06:50;16.50;88.50
4962;DHT22;2496;52.468;13.342;2022-08-07T04:09:19;16.50;88.50
4962;DHT22;2496;52.468;13.342;2022-08-07T04:11:48;16.50;88.60
4962;DHT22;2496;52.468;13.342;2022-08-07T04:14:17;16.50;88.20
4962;DHT22;2496;52.468;13.342;2022-08-07T04:16:46;16.50;88.10
4962;DHT22;2496;52.468;13.342;2022-08-07T04:19:14;16.50;88.20
4962;DHT22;2496;52.468;13.342;2022-08-07T04:21:42;16.40;88.40
4962;DHT22;2496;52.468;13.342;2022-08-07T04:24:10;16.40;88.40
4962;DHT22;2496;52.468;13.342;2022-08-07T04:26:38;16.40;88.50
4962;DHT22;2496;52.468;13.342;2022-08-07T04:29:06;16.40;88.60
4962;DHT22;2496;52.468;13.342;2022-08-07T04:31:36;16.50;88.60
4962;DHT22;2496;52.468;13.342;2022-08-07T04:34:04;16.50;88.20
4962;DHT22;2496;52.468;13.342;2022-08-07T04:36:32;16.50;88.30
4962;DHT22;2496;52.468;13.342;2022-08-07T04:39:00;16.50;88.20
4962;DHT22;2496;52.468;13.342;2022-08-07T04:41:28;16.50;88.20
4962;DHT22;2496;52.468;13.342;2022-08-07T04:43:55;16.40;88.30
4962;DHT22;2496;52.468;13.342;2022-08-07T04:46:29;16.40;88.30
4962;DHT22;2496;52.468;13.342;2022-08-07T04:49:08;16.50;88.00
4962;DHT22;2496;52.468;13.342;2022-08-07T04:51:53;16.50;87.90
4962;DHT22;2496;52.468;13.342;2022-08-07T04:54:29;16.50;88.20
4962;DHT22;2496;52.468;13.342;2022-08-07T04:57:01;16.50;88.10
4962;DHT22;2496;52.468;13.342;2022-08-07T04:59:33;16.60;88.10
4962;DHT22;2496;52.468;13.342;2022-08-07T05:02:06;16.70;88.20
4962;DHT22;2496;52.468;13.342;2022-08-07T05:04:41;16.70;87.90
4962;DHT22;2496;52.468;13.342;2022-08-07T05:07:16;16.70;87.30
4962;DHT22;2496;52.468;13.342;2022-08-07T05:09:53;16.80;87.20
4962;DHT22;2496;52.468;13.342;2022-08-07T05:12:29;16.80;87.60
4962;DHT22;2496;52.468;13.342;2022-08-07T05:15:03;16.80;87.50
4962;DHT22;2496;52.468;13.342;2022-08-07T05:17:43;16.80;87.20
4962;DHT22;2496;52.468;13.342;2022-08-07T05:20:16;16.80;87.10
4962;DHT22;2496;52.468;13.342;2022-08-07T05:22:48;16.90;86.90
4962;DHT22;2496;52.468;13.342;2022-08-07T05:25:19;16.80;86.80
4962;DHT22;2496;52.468;13.342;2022-08-07T05:27:48;16.80;87.20
4962;DHT22;2496;52.468;13.342;2022-08-07T05:30:16;16.80;87.60
4962;DHT22;2496;52.468;13.342;2022-08-07T05:32:44;16.80;87.50
4962;DHT22;2496;52.468;13.342;2022-08-07T05:35:14;16.90;87.80
4962;DHT22;2496;52.468;13.342;2022-08-07T05:37:43;16.90;88.20
4962;DHT22;2496;52.468;13.342;2022-08-07T05:40:12;17.00;87.40
4962;DHT22;2496;52.468;13.342;2022-08-07T05:42:40;17.00;86.70
4962;DHT22;2496;52.468;13.342;2022-08-07T05:45:08;17.10;87.00
4962;DHT22;2496;52.468;13.342;2022-08-07T05:47:36;17.20;86.00
4962;DHT22;2496;52.468;13.342;2022-08-07T05:50:04;17.60;84.70
4962;DHT22;2496;52.468;13.342;2022-08-07T05:52:33;18.00;83.70
4962;DHT22;2496;52.468;13.342;2022-08-07T05:55:01;18.30;82.80
4962;DHT22;2496;52.468;13.342;2022-08-07T05:57:30;18.40;82.30
4962;DHT22;2496;52.468;13.342;2022-08-07T05:59:58;18.60;82.40
4962;DHT22;2496;52.468;13.342;2022-08-07T06:02:28;18.80;82.00
4962;DHT22;2496;52.468;13.342;2022-08-07T06:05:01;19.20;80.60
4962;DHT22;2496;52.468;13.342;2022-08-07T06:07:29;19.30;78.70
4962;DHT22;2496;52.468;13.342;2022-08-07T06:09:59;19.80;78.20
4962;DHT22;2496;52.468;13.342;2022-08-07T06:12:27;20.20;76.20
4962;DHT22;2496;52.468;13.342;2022-08-07T06:14:57;20.30;76.00
4962;DHT22;2496;52.468;13.342;2022-08-07T06:17:25;20.00;76.20
4962;DHT22;2496;52.468;13.342;2022-08-07T06:19:52;19.80;76.80
4962;DHT22;2496;52.468;13.342;2022-08-07T06:22:20;19.60;77.70
4962;DHT22;2496;52.468;13.342;2022-08-07T06:24:47;19.40;78.20
4962;DHT22;2496;52.468;13.342;2022-08-07T06:27:21;19.40;77.60
4962;DHT22;2496;52.468;13.342;2022-08-07T06:29:48;19.30;77.80
4962;DHT22;2496;52.468;13.342;2022-08-07T06:32:15;19.30;77.90
4962;DHT22;2496;52.468;13.342;2022-08-07T06:34:42;19.30;78.20
4962;DHT22;2496;52.468;13.342;2022-08-07T06:37:09;19.30;78.60
4962;DHT22;2496;52.468;13.342;2022-08-07T06:39:36;19.20;78.00
4962;DHT22;2496;52.468;13.342;2022-08-07T06:42:07;19.20;76.70
4962;DHT22;2496;52.468;13.342;2022-08-07T06:44:36;19.20;76.90
4962;DHT22;2496;52.468;13.342;2022-08-07T06:47:04;19.30;76.70
4962;DHT22;2496;52.468;13.342;2022-08-07T06:49:31;19.30;76.80
4962;DHT22;2496;52.468;13.342;2022-08-07T06:51:58;19.30;76.40
4962;DHT22;2496;52.468;13.342;2022-08-07T06:54:27;19.30;76.60
4962;DHT22;2496;52.468;13.342;2022-08-07T06:56:55;19.40;76.10
4962;DHT22;2496;52.468;13.342;2022-08-07T06:59:25;19.40;76.30
4962;DHT22;2496;52.468;13.342;2022-08-07T07:01:54;19.50;75.80
4962;DHT22;2496;52.468;13.342;2022-08-07T07:04:23;19.60;76.20
4962;DHT22;2496;52.468;13.342;2022-08-07T07:06:51;19.70;76.10
4962;DHT22;2496;52.468;13.342;2022-08-07T07:09:19;19.80;75.90
4962;DHT22;2496;52.468;13.342;2022-08-07T07:11:56;19.90;75.80
4962;DHT22;2496;52.468;13.342;2022-08-07T07:14:26;20.00;75.10
4962;DHT22;2496;52.468;13.342;2022-08-07T07:16:58;20.10;74.10
4962;DHT22;2496;52.468;13.342;2022-08-07T07:19:31;20.20;73.60
4962;DHT22;2496;52.468;13.342;2022-08-07T07:21:59;20.20;73.20
4962;DHT22;2496;52.468;13.342;2022-08-07T07:24:27;20.30;73.20
4962;DHT22;2496;52.468;13.342;2022-08-07T07:26:56;20.40;73.60
4962;DHT22;2496;52.468;13.342;2022-08-07T07:29:27;20.50;73.00
4962;DHT22;2496;52.468;13.342;2022-08-07T07:31:58;20.60;73.00
4962;DHT22;2496;52.468;13.342;2022-08-07T07:34:29;20.70;73.20
4962;DHT22;2496;52.468;13.342;2022-08-07T07:36:58;20.80;72.70
4962;DHT22;2496;52.468;13.342;2022-08-07T07:39:27;21.00;72.20
4962;DHT22;2496;52.468;13.342;2022-08-07T07:41:55;21.10;71.60
4962;DHT22;2496;52.468;13.342;2022-08-07T07:44:23;21.20;71.50
4962;DHT22;2496;52.468;13.342;2022-08-07T07:46:52;21.30;72.00
4962;DHT22;2496;52.468;13.342;2022-08-07T07:49:25;21.50;71.50
4962;DHT22;2496;52.468;13.342;2022-08-07T07:51:52;21.70;71.10
4962;DHT22;2496;52.468;13.342;2022-08-07T07:54:22;21.90;70.00
4962;DHT22;2496;52.468;13.342;2022-08-07T07:56:50;21.90;69.40
4962;DHT22;2496;52.468;13.342;2022-08-07T07:59:18;22.00;69.00
4962;DHT22;2496;52.468;13.342;2022-08-07T08:01:48;22.10;69.20
4962;DHT22;2496;52.468;13.342;2022-08-07T08:04:16;22.20;69.10
4962;DHT22;2496;52.468;13.342;2022-08-07T08:06:46;22.50;68.10
4962;DHT22;2496;52.468;13.342;2022-08-07T08:09:15;22.70;67.70
4962;DHT22;2496;52.468;13.342;2022-08-07T08:11:45;22.80;67.00
4962;DHT22;2496;52.468;13.342;2022-08-07T08:14:12;22.90;67.60
4962;DHT22;2496;52.468;13.342;2022-08-07T08:16:42;23.00;67.40
4962;DHT22;2496;52.468;13.342;2022-08-07T08:19:14;23.20;66.70
4962;DHT22;2496;52.468;13.342;2022-08-07T08:21:47;23.30;66.40
4962;DHT22;2496;52.468;13.342;2022-08-07T08:24:42;23.50;65.80
4962;DHT22;2496;52.468;13.342;2022-08-07T08:27:30;23.70;65.70
4962;DHT22;2496;52.468;13.342;2022-08-07T08:30:02;23.90;65.70
4962;DHT22;2496;52.468;13.342;2022-08-07T08:32:32;24.20;65.50
4962;DHT22;2496;52.468;13.342;2022-08-07T08:35:02;24.40;64.80
4962;DHT22;2496;52.468;13.342;2022-08-07T08:37:34;24.60;63.80
4962;DHT22;2496;52.468;13.342;2022-08-07T08:40:04;24.70;63.30
4962;DHT22;2496;52.468;13.342;2022-08-07T08:42:39;24.80;62.80
4962;DHT22;2496;52.468;13.342;2022-08-07T08:45:13;24.80;62.80
4962;DHT22;2496;52.468;13.342;2022-08-07T08:47:49;25.00;63.70
4962;DHT22;2496;52.468;13.342;2022-08-07T08:50:21;24.80;62.50
4962;DHT22;2496;52.468;13.342;2022-08-07T08:52:55;24.80;61.60
4962;DHT22;2496;52.468;13.342;2022-08-07T08:55:29;24.70;61.50
4962;DHT22;2496;52.468;13.342;2022-08-07T08:58:02;24.40;62.30
4962;DHT22;2496;52.468;13.342;2022-08-07T09:00:35;24.30;63.00
4962;DHT22;2496;52.468;13.342;2022-08-07T09:03:09;24.30;62.70
4962;DHT22;2496;52.468;13.342;2022-08-07T09:05:46;24.50;63.50
4962;DHT22;2496;52.468;13.342;2022-08-07T09:08:24;24.90;61.80
4962;DHT22;2496;52.468;13.342;2022-08-07T09:11:04;25.20;61.80
4962;DHT22;2496;52.468;13.342;2022-08-07T09:13:40;25.40;62.10
4962;DHT22;2496;52.468;13.342;2022-08-07T09:16:17;25.80;61.70
4962;DHT22;2496;52.468;13.342;2022-08-07T09:19:09;26.00;58.90
4962;DHT22;2496;52.468;13.342;2022-08-07T09:21:46;26.10;60.00
4962;DHT22;2496;52.468;13.342;2022-08-07T09:24:24;26.10;59.00
4962;DHT22;2496;52.468;13.342;2022-08-07T09:26:55;26.00;58.90
4962;DHT22;2496;52.468;13.342;2022-08-07T09:29:31;26.00;58.80
4962;DHT22;2496;52.468;13.342;2022-08-07T09:32:07;26.00;58.40
4962;DHT22;2496;52.468;13.342;2022-08-07T09:34:48;25.70;58.80
4962;DHT22;2496;52.468;13.342;2022-08-07T09:37:24;25.40;59.20
4962;DHT22;2496;52.468;13.342;2022-08-07T09:40:00;25.40;59.80
4962;DHT22;2496;52.468;13.342;2022-08-07T09:42:39;25.20;60.70
4962;DHT22;2496;52.468;13.342;2022-08-07T09:45:13;24.90;59.90
4962;DHT22;2496;52.468;13.342;2022-08-07T09:47:48;24.50;59.80
4962;DHT22;2496;52.468;13.342;2022-08-07T09:50:35;24.10;60.60
4962;DHT22;2496;52.468;13.342;2022-08-07T09:53:06;23.90;61.60
4962;DHT22;2496;52.468;13.342;2022-08-07T09:55:54;23.60;61.70
4962;DHT22;2496;52.468;13.342;2022-08-07T09:58:51;23.40;61.50
4962;DHT22;2496;52.468;13.342;2022-08-07T10:01:46;23.20;61.40
4962;DHT22;2496;52.468;13.342;2022-08-07T10:04:38;23.00;61.90
4962;DHT22;2496;52.468;13.342;2022-08-07T10:10:22;22.50;62.50
4962;DHT22;2496;52.468;13.342;2022-08-07T10:16:08;22.40;62.80
4962;DHT22;2496;52.468;13.342;2022-08-07T10:19:08;22.30;63.10
4962;DHT22;2496;52.468;13.342;2022-08-07T10:21:51;22.30;64.20
4962;DHT22;2496;52.468;13.342;2022-08-07T10:24:48;22.30;63.80
4962;DHT22;2496;52.468;13.342;2022-08-07T10:27:28;22.30;64.00
4962;DHT22;2496;52.468;13.342;2022-08-07T10:30:06;22.60;63.60
4962;DHT22;2496;52.468;13.342;2022-08-07T10:32:55;22.90;63.20
4962;DHT22;2496;52.468;13.342;2022-08-07T10:35:28;23.00;61.90
4962;DHT22;2496;52.468;13.342;2022-08-07T10:38:05;23.00;62.40
4962;DHT22;2496;52.468;13.342;2022-08-07T10:40:44;23.20;62.60
4962;DHT22;2496;52.468;13.342;2022-08-07T10:43:16;23.20;61.70
4962;DHT22;2496;52.468;13.342;2022-08-07T10:45:47;23.30;61.90
4962;DHT22;2496;52.468;13.342;2022-08-07T10:48:33;23.50;62.00
4962;DHT22;2496;52.468;13.342;2022-08-07T10:51:06;23.60;61.10
4962;DHT22;2496;52.468;13.342;2022-08-07T10:53:40;23.70;60.30
4962;DHT22;2496;52.468;13.342;2022-08-07T10:56:14;23.80;60.90
4962;DHT22;2496;52.468;13.342;2022-08-07T10:58:55;23.90;61.30
4962;DHT22;2496;52.468;13.342;2022-08-07T11:01:43;23.90;60.70
4962;DHT22;2496;52.468;13.342;2022-08-07T11:04:21;24.00;61.60
4962;DHT22;2496;52.468;13.342;2022-08-07T11:06:56;24.20;61.20
4962;DHT22;2496;52.468;13.342;2022-08-07T11:09:30;24.40;61.00
4962;DHT22;2496;52.468;13.342;2022-08-07T11:12:03;24.30;60.20
4962;DHT22;2496;52.468;13.342;2022-08-07T11:14:36;24.20;60.00
4962;DHT22;2496;52.468;13.342;2022-08-07T11:17:10;24.00;60.40
4962;DHT22;2496;52.468;13.342;2022-08-07T11:19:47;23.90;60.80
4962;DHT22;2496;52.468;13.342;2022-08-07T11:22:20;23.90;61.10
4962;DHT22;2496;52.468;13.342;2022-08-07T11:24:55;23.90;60.80
4962;DHT22;2496;52.468;13.342;2022-08-07T11:27:29;23.90;60.70
4962;DHT22;2496;52.468;13.342;2022-08-07T11:30:03;23.70;60.70
4962;DHT22;2496;52.468;13.342;2022-08-07T11:32:35;23.70;60.60
4962;DHT22;2496;52.468;13.342;2022-08-07T11:35:10;23.50;60.40
4962;DHT22;2496;52.468;13.342;2022-08-07T11:37:59;23.40;61.20
4962;DHT22;2496;52.468;13.342;2022-08-07T11:40:35;23.30;61.70
4962;DHT22;2496;52.468;13.342;2022-08-07T11:43:10;23.30;61.40
4962;DHT22;2496;52.468;13.342;2022-08-07T11:45:50;23.40;61.10
4962;DHT22;2496;52.468;13.342;2022-08-07T11:51:21;23.80;61.00
4962;DHT22;2496;52.468;13.342;2022-08-07T11:53:54;24.10;60.20
4962;DHT22;2496;52.468;13.342;2022-08-07T11:56:34;24.20;60.10
4962;DHT22;2496;52.468;13.342;2022-08-07T11:59:14;24.30;59.60
4962;DHT22;2496;52.468;13.342;2022-08-07T12:01:50;24.50;60.00
4962;DHT22;2496;52.468;13.342;2022-08-07T12:04:33;24.60;58.70
4962;DHT22;2496;52.468;13.342;2022-08-07T12:07:12;24.50;59.50
4962;DHT22;2496;52.468;13.342;2022-08-07T12:09:47;24.50;59.20
4962;DHT22;2496;52.468;13.342;2022-08-07T12:12:18;24.30;58.80
4962;DHT22;2496;52.468;13.342;2022-08-07T12:14:51;24.20;59.40
4962;DHT22;2496;52.468;13.342;2022-08-07T12:17:23;24.20;59.40
4962;DHT22;2496;52.468;13.342;2022-08-07T12:20:05;24.40;59.90
4962;DHT22;2496;52.468;13.342;2022-08-07T12:22:49;24.50;58.90
4962;DHT22;2496;52.468;13.342;2022-08-07T12:25:24;24.40;58.80
4962;DHT22;2496;52.468;13.342;2022-08-07T12:28:14;24.20;58.90
4962;DHT22;2496;52.468;13.342;2022-08-07T12:30:44;24.20;59.20
4962;DHT22;2496;52.468;13.342;2022-08-07T12:33:18;24.20;59.60
4962;DHT22;2496;52.468;13.342;2022-08-07T12:35:47;24.30;59.40
4962;DHT22;2496;52.468;13.342;2022-08-07T12:38:18;24.40;59.60
4962;DHT22;2496;52.468;13.342;2022-08-07T12:40:46;24.50;59.00
4962;DHT22;2496;52.468;13.342;2022-08-07T12:43:18;24.60;58.90
4962;DHT22;2496;52.468;13.342;2022-08-07T12:45:51;24.50;58.70
4962;DHT22;2496;52.468;13.342;2022-08-07T12:48:28;24.40;58.80
4962;DHT22;2496;52.468;13.342;2022-08-07T12:51:02;24.40;59.20
4962;DHT22;2496;52.468;13.342;2022-08-07T12:53:39;24.40;58.90
4962;DHT22;2496;52.468;13.342;2022-08-07T12:56:13;24.40;58.90
4962;DHT22;2496;52.468;13.342;2022-08-07T12:58:45;24.30;59.10
4962;DHT22;2496;52.468;13.342;2022-08-07T13:01:22;24.20;58.80
4962;DHT22;2496;52.468;13.342;2022-08-07T13:04:03;24.10;58.90
4962;DHT22;2496;52.468;13.342;2022-08-07T13:06:45;23.90;59.00
4962;DHT22;2496;52.468;13.342;2022-08-07T13:09:24;23.80;59.40
4962;DHT22;2496;52.468;13.342;2022-08-07T13:11:59;23.70;59.50
4962;DHT22;2496;52.468;13.342;2022-08-07T13:14:36;23.50;59.40
4962;DHT22;2496;52.468;13.342;2022-08-07T13:17:12;23.40;59.70
4962;DHT22;2496;52.468;13.342;2022-08-07T13:19:45;23.40;60.00
4962;DHT22;2496;52.468;13.342;2022-08-07T13:22:17;23.40;60.00
4962;DHT22;2496;52.468;13.342;2022-08-07T13:24:52;23.50;60.30
4962;DHT22;2496;52.468;13.342;2022-08-07T13:27:26;23.60;60.20
4962;DHT22;2496;52.468;13.342;2022-08-07T13:30:00;23.70;59.40
4962;DHT22;2496;52.468;13.342;2022-08-07T13:32:31;23.70;60.20
4962;DHT22;2496;52.468;13.342;2022-08-07T13:35:05;23.80;59.50
4962;DHT22;2496;52.468;13.342;2022-08-07T13:37:40;24.00;59.60
4962;DHT22;2496;52.468;13.342;2022-08-07T13:40:14;24.20;59.40
4962;DHT22;2496;52.468;13.342;2022-08-07T13:42:43;24.40;58.70
4962;DHT22;2496;52.468;13.342;2022-08-07T13:45:12;24.40;58.30
4962;DHT22;2496;52.468;13.342;2022-08-07T13:47:41;24.40;58.40
4962;DHT22;2496;52.468;13.342;2022-08-07T13:50:09;24.30;58.70
4962;DHT22;2496;52.468;13.342;2022-08-07T13:52:39;24.20;58.70
4962;DHT22;2496;52.468;13.342;2022-08-07T13:55:13;24.10;59.10
4962;DHT22;2496;52.468;13.342;2022-08-07T13:57:43;23.90;59.00
4962;DHT22;2496;52.468;13.342;2022-08-07T14:00:11;23.80;58.90
4962;DHT22;2496;52.468;13.342;2022-08-07T14:02:42;23.70;59.00
4962;DHT22;2496;52.468;13.342;2022-08-07T14:05:12;23.60;59.00
4962;DHT22;2496;52.468;13.342;2022-08-07T14:07:41;23.50;59.40
4962;DHT22;2496;52.468;13.342;2022-08-07T14:10:11;23.50;59.40
4962;DHT22;2496;52.468;13.342;2022-08-07T14:12:43;23.40;59.60
4962;DHT22;2496;52.468;13.342;2022-08-07T14:15:19;23.30;60.50
4962;DHT22;2496;52.468;13.342;2022-08-07T14:17:46;23.30;59.90
4962;DHT22;2496;52.468;13.342;2022-08-07T14:20:18;23.30;59.80
4962;DHT22;2496;52.468;13.342;2022-08-07T14:22:50;23.40;59.60
4962;DHT22;2496;52.468;13.342;2022-08-07T14:25:24;23.40;59.40
4962;DHT22;2496;52.468;13.342;2022-08-07T14:27:52;23.40;59.80
4962;DHT22;2496;52.468;13.342;2022-08-07T14:30:21;23.30;60.00
4962;DHT22;2496;52.468;13.342;2022-08-07T14:32:54;23.30;60.00
4962;DHT22;2496;52.468;13.342;2022-08-07T14:35:23;23.20;60.00
4962;DHT22;2496;52.468;13.342;2022-08-07T14:37:52;23.20;60.40
4962;DHT22;2496;52.468;13.342;2022-08-07T14:40:25;23.30;59.90
4962;DHT22;2496;52.468;13.342;2022-08-07T14:43:07;23.30;60.10
4962;DHT22;2496;52.468;13.342;2022-08-07T14:45:41;23.30;59.50
4962;DHT22;2496;52.468;13.342;2022-08-07T14:48:09;23.30;59.30
4962;DHT22;2496;52.468;13.342;2022-08-07T14:50:42;23.40;59.30
4962;DHT22;2496;52.468;13.342;2022-08-07T14:53:11;23.50;58.90
4962;DHT22;2496;52.468;13.342;2022-08-07T14:55:40;23.60;59.00
4962;DHT22;2496;52.468;13.342;2022-08-07T14:58:10;23.70;59.10
4962;DHT22;2496;52.468;13.342;2022-08-07T15:00:41;23.80;58.70
4962;DHT22;2496;52.468;13.342;2022-08-07T15:03:09;23.80;58.60
4962;DHT22;2496;52.468;13.342;2022-08-07T15:05:37;23.90;58.80
4962;DHT22;2496;52.468;13.342;2022-08-07T15:08:09;23.90;59.40
4962;DHT22;2496;52.468;13.342;2022-08-07T15:10:40;24.00;59.30
4962;DHT22;2496;52.468;13.342;2022-08-07T15:13:14;24.10;59.00
4962;DHT22;2496;52.468;13.342;2022-08-07T15:15:47;24.10;58.50
4962;DHT22;2496;52.468;13.342;2022-08-07T15:18:18;24.10;58.90
4962;DHT22;2496;52.468;13.342;2022-08-07T15:20:46;24.10;58.40
4962;DHT22;2496;52.468;13.342;2022-08-07T15:23:19;24.00;58.20
4962;DHT22;2496;52.468;13.342;2022-08-07T15:25:54;24.00;58.70
4962;DHT22;2496;52.468;13.342;2022-08-07T15:28:24;24.00;58.80
4962;DHT22;2496;52.468;13.342;2022-08-07T15:30:54;24.00;58.70
4962;DHT22;2496;52.468;13.342;2022-08-07T15:33:23;24.00;58.40
4962;DHT22;2496;52.468;13.342;2022-08-07T15:35:51;24.10;58.20
4962;DHT22;2496;52.468;13.342;2022-08-07T15:38:22;24.10;57.70
4962;DHT22;2496;52.468;13.342;2022-08-07T15:40:51;24.00;57.60
4962;DHT22;2496;52.468;13.342;2022-08-07T15:43:22;24.00;57.60
4962;DHT22;2496;52.468;13.342;2022-08-07T15:45:51;24.00;57.70
4962;DHT22;2496;52.468;13.342;2022-08-07T15:48:24;23.90;57.90
4962;DHT22;2496;52.468;13.342;2022-08-07T15:50:54;23.90;58.30
4962;DHT22;2496;52.468;13.342;2022-08-07T15:53:26;23.90;57.90
4962;DHT22;2496;52.468;13.342;2022-08-07T15:56:02;23.90;57.40
4962;DHT22;2496;52.468;13.342;2022-08-07T15:58:34;23.70;57.50
4962;DHT22;2496;52.468;13.342;2022-08-07T16:01:05;23.70;57.40
4962;DHT22;2496;52.468;13.342;2022-08-07T16:03:37;23.70;57.40
4962;DHT22;2496;52.468;13.342;2022-08-07T16:06:05;23.80;57.60
4962;DHT22;2496;52.468;13.342;2022-08-07T16:08:33;23.80;57.80
4962;DHT22;2496;52.468;13.342;2022-08-07T16:11:05;23.80;57.40
4962;DHT22;2496;52.468;13.342;2022-08-07T16:13:50;23.80;57.90
4962;DHT22;2496;52.468;13.342;2022-08-07T16:16:30;23.80;58.20
4962;DHT22;2496;52.468;13.342;2022-08-07T16:19:11;23.80;58.90
4962;DHT22;2496;52.468;13.342;2022-08-07T16:21:46;23.80;58.80
4962;DHT22;2496;52.468;13.342;2022-08-07T16:24:25;23.90;58.40